sensor_id;sensor_type;location;lat;lon;timestamp;P1;durP1;ratioP1;P2;durP2;ratioP2
13685;SDS011;6915;48.296;8.874;2022-12-13T00:01:50;25.57;;;10.90;;
13685;SDS011;6915;48.296;8.874;2022-12-13T00:04:20;20.67;;;10.23;;
13685;SDS011;6915;48.296;8.874;2022-12-13T00:06:50;17.97;;;10.00;;
13685;SDS011;6915;48.296;8.874;2022-12-13T00:09:20;21.17;;;10.10;;
13685;SDS011;6915;48.296;8.874;2022-12-13T00:11:49;21.07;;;10.03;;
13685;SDS011;6915;48.296;8.874;2022-12-13T00:14:18;17.47;;;9.73;;
13685;SDS011;6915;48.296;8.874;2022-12-13T00:16:47;20.13;;;9.73;;
13685;SDS011;6915;48.296;8.874;2022-12-13T00:19:17;17.53;;;8.90;;
13685;SDS011;6915;48.296;8.874;2022-12-13T00:21:46;18.93;;;9.57;;
13685;SDS011;6915;48.296;8.874;2022-12-13T00:24:15;18.40;;;9.10;;
13685;SDS011;6915;48.296;8.874;2022-12-13T00:26:43;19.90;;;9.37;;
13685;SDS011;6915;48.296;8.874;2022-12-13T00:29:12;18.33;;;9.97;;
13685;SDS011;6915;48.296;8.874;2022-12-13T00:31:42;16.17;;;9.20;;
13685;SDS011;6915;48.296;8.874;2022-12-13T00:34:11;18.40;;;9.27;;
13685;SDS011;6915;48.296;8.874;2022-12-13T00:36:39;19.87;;;10.20;;
13685;SDS011;6915;48.296;8.874;2022-12-13T00:39:08;18.87;;;9.40;;
13685;SDS011;6915;48.296;8.874;2022-12-13T00:41:38;20.47;;;10.40;;
13685;SDS011;6915;48.296;8.874;2022-12-13T00:44:08;21.03;;;9.93;;
13685;SDS011;6915;48.296;8.874;2022-12-13T00:46:38;20.90;;;10.27;;
13685;SDS011;6915;48.296;8.874;2022-12-13T00:49:09;18.13;;;10.33;;
13685;SDS011;6915;48.296;8.874;2022-12-13T00:51:40;21.30;;;10.07;;
13685;SDS011;6915;48.296;8.874;2022-12-13T00:54:09;22.50;;;10.20;;
13685;SDS011;6915;48.296;8.874;2022-12-13T00:56:38;19.77;;;9.87;;
13685;SDS011;6915;48.296;8.874;2022-12-13T00:59:07;19.70;;;10.17;;
13685;SDS011;6915;48.296;8.874;2022-12-13T01:01:38;19.53;;;10.33;;
13685;SDS011;6915;48.296;8.874;2022-12-13T01:04:09;21.37;;;10.10;;
13685;SDS011;6915;48.296;8.874;2022-12-13T01:06:40;18.10;;;9.37;;
13685;SDS011;6915;48.296;8.874;2022-12-13T01:09:13;17.63;;;9.13;;
13685;SDS011;6915;48.296;8.874;2022-12-13T01:11:44;20.60;;;9.77;;
13685;SDS011;6915;48.296;8.874;2022-12-13T01:14:13;19.53;;;10.03;;
13685;SDS011;6915;48.296;8.874;2022-12-13T01:16:43;19.60;;;9.47;;
13685;SDS011;6915;48.296;8.874;2022-12-13T01:19:13;19.43;;;9.10;;
13685;SDS011;6915;48.296;8.874;2022-12-13T01:21:42;18.53;;;9.40;;
13685;SDS011;6915;48.296;8.874;2022-12-13T01:24:11;19.47;;;9.83;;
13685;SDS011;6915;48.296;8.874;2022-12-13T01:26:44;18.33;;;9.03;;
13685;SDS011;6915;48.296;8.874;2022-12-13T01:29:13;18.50;;;8.83;;
13685;SDS011;6915;48.296;8.874;2022-12-13T01:31:42;18.60;;;9.73;;
13685;SDS011;6915;48.296;8.874;2022-12-13T01:34:10;16.73;;;9.13;;
13685;SDS011;6915;48.296;8.874;2022-12-13T01:36:42;17.67;;;8.63;;
13685;SDS011;6915;48.296;8.874;2022-12-13T01:39:13;19.17;;;9.80;;
13685;SDS011;6915;48.296;8.874;2022-12-13T01:41:44;19.73;;;9.60;;
13685;SDS011;6915;48.296;8.874;2022-12-13T01:47:20;15.20;;;8.50;;
13685;SDS011;6915;48.296;8.874;2022-12-13T01:49:53;21.43;;;9.53;;
13685;SDS011;6915;48.296;8.874;2022-12-13T01:52:26;17.80;;;8.73;;
13685;SDS011;6915;48.296;8.874;2022-12-13T01:54:57;17.03;;;8.67;;
13685;SDS011;6915;48.296;8.874;2022-12-13T01:57:31;18.13;;;9.47;;
13685;SDS011;6915;48.296;8.874;2022-12-13T02:00:02;19.63;;;9.47;;
13685;SDS011;6915;48.296;8.874;2022-12-13T02:02:32;18.73;;;9.30;;
13685;SDS011;6915;48.296;8.874;2022-12-13T02:05:03;17.80;;;9.17;;
13685;SDS011;6915;48.296;8.874;2022-12-13T02:07:37;19.77;;;10.00;;
13685;SDS011;6915;48.296;8.874;2022-12-13T02:10:07;18.87;;;9.67;;
13685;SDS011;6915;48.296;8.874;2022-12-13T02:12:37;15.60;;;8.73;;
13685;SDS011;6915;48.296;8.874;2022-12-13T02:15:08;17.73;;;9.47;;
13685;SDS011;6915;48.296;8.874;2022-12-13T02:17:41;18.50;;;8.80;;
13685;SDS011;6915;48.296;8.874;2022-12-13T02:26:55;18.90;;;8.53;;
13685;SDS011;6915;48.296;8.874;2022-12-13T02:29:35;17.77;;;8.33;;
13685;SDS011;6915;48.296;8.874;2022-12-13T02:32:30;17.80;;;8.53;;
13685;SDS011;6915;48.296;8.874;2022-12-13T02:35:05;18.60;;;9.10;;
13685;SDS011;6915;48.296;8.874;2022-12-13T02:37:39;15.83;;;8.20;;
13685;SDS011;6915;48.296;8.874;2022-12-13T02:40:15;18.43;;;8.83;;
13685;SDS011;6915;48.296;8.874;2022-12-13T02:42:51;15.33;;;8.20;;
13685;SDS011;6915;48.296;8.874;2022-12-13T02:45:26;17.73;;;9.43;;
13685;SDS011;6915;48.296;8.874;2022-12-13T02:47:58;18.47;;;8.87;;
13685;SDS011;6915;48.296;8.874;2022-12-13T02:50:29;20.40;;;9.47;;
13685;SDS011;6915;48.296;8.874;2022-12-13T02:53:00;20.40;;;9.37;;
13685;SDS011;6915;48.296;8.874;2022-12-13T02:55:29;15.23;;;9.30;;
13685;SDS011;6915;48.296;8.874;2022-12-13T02:58:00;20.33;;;9.30;;
13685;SDS011;6915;48.296;8.874;2022-12-13T03:00:30;18.03;;;9.30;;
13685;SDS011;6915;48.296;8.874;2022-12-13T03:03:11;18.33;;;8.90;;
13685;SDS011;6915;48.296;8.874;2022-12-13T03:05:46;17.03;;;9.03;;
13685;SDS011;6915;48.296;8.874;2022-12-13T03:08:41;19.17;;;9.73;;
13685;SDS011;6915;48.296;8.874;2022-12-13T03:11:19;17.33;;;8.87;;
13685;SDS011;6915;48.296;8.874;2022-12-13T03:13:52;17.27;;;8.87;;
13685;SDS011;6915;48.296;8.874;2022-12-13T03:16:27;15.10;;;8.17;;
13685;SDS011;6915;48.296;8.874;2022-12-13T03:19:02;15.90;;;8.60;;
13685;SDS011;6915;48.296;8.874;2022-12-13T03:21:36;18.93;;;8.73;;
13685;SDS011;6915;48.296;8.874;2022-12-13T03:24:06;16.40;;;8.67;;
13685;SDS011;6915;48.296;8.874;2022-12-13T03:26:35;15.63;;;8.43;;
13685;SDS011;6915;48.296;8.874;2022-12-13T03:29:05;17.77;;;8.70;;
13685;SDS011;6915;48.296;8.874;2022-12-13T03:31:34;16.50;;;9.17;;
13685;SDS011;6915;48.296;8.874;2022-12-13T03:34:05;18.17;;;8.93;;
13685;SDS011;6915;48.296;8.874;2022-12-13T03:36:34;16.47;;;8.53;;
13685;SDS011;6915;48.296;8.874;2022-12-13T03:39:03;16.03;;;8.53;;
13685;SDS011;6915;48.296;8.874;2022-12-13T03:41:32;18.30;;;8.80;;
13685;SDS011;6915;48.296;8.874;2022-12-13T03:44:04;16.17;;;8.70;;
13685;SDS011;6915;48.296;8.874;2022-12-13T03:46:33;18.77;;;9.00;;
13685;SDS011;6915;48.296;8.874;2022-12-13T03:49:02;18.60;;;8.97;;
13685;SDS011;6915;48.296;8.874;2022-12-13T03:51:32;22.23;;;9.77;;
13685;SDS011;6915;48.296;8.874;2022-12-13T03:54:01;21.47;;;9.30;;
13685;SDS011;6915;48.296;8.874;2022-12-13T03:56:30;16.97;;;8.93;;
13685;SDS011;6915;48.296;8.874;2022-12-13T03:58:58;15.00;;;7.87;;
13685;SDS011;6915;48.296;8.874;2022-12-13T04:01:27;18.67;;;9.07;;
13685;SDS011;6915;48.296;8.874;2022-12-13T04:03:56;18.20;;;9.10;;
13685;SDS011;6915;48.296;8.874;2022-12-13T04:09:15;21.50;;;9.73;;
13685;SDS011;6915;48.296;8.874;2022-12-13T04:11:44;21.10;;;9.73;;
13685;SDS011;6915;48.296;8.874;2022-12-13T04:14:30;17.03;;;8.43;;
13685;SDS011;6915;48.296;8.874;2022-12-13T04:16:58;17.03;;;8.90;;
13685;SDS011;6915;48.296;8.874;2022-12-13T04:19:29;17.27;;;8.73;;
13685;SDS011;6915;48.296;8.874;2022-12-13T04:21:59;17.63;;;8.23;;
13685;SDS011;6915;48.296;8.874;2022-12-13T04:24:28;18.10;;;8.37;;
13685;SDS011;6915;48.296;8.874;2022-12-13T04:26:56;19.67;;;8.60;;
13685;SDS011;6915;48.296;8.874;2022-12-13T04:29:25;15.37;;;8.43;;
13685;SDS011;6915;48.296;8.874;2022-12-13T04:31:54;18.83;;;8.73;;
13685;SDS011;6915;48.296;8.874;2022-12-13T04:34:23;15.33;;;8.20;;
13685;SDS011;6915;48.296;8.874;2022-12-13T04:36:51;17.53;;;9.43;;
13685;SDS011;6915;48.296;8.874;2022-12-13T04:39:21;16.37;;;8.47;;
13685;SDS011;6915;48.296;8.874;2022-12-13T04:41:50;19.20;;;9.27;;
13685;SDS011;6915;48.296;8.874;2022-12-13T04:44:19;17.97;;;9.00;;
13685;SDS011;6915;48.296;8.874;2022-12-13T04:46:48;19.00;;;9.03;;
13685;SDS011;6915;48.296;8.874;2022-12-13T04:49:17;16.50;;;9.07;;
13685;SDS011;6915;48.296;8.874;2022-12-13T04:51:45;17.37;;;8.80;;
13685;SDS011;6915;48.296;8.874;2022-12-13T04:54:14;17.83;;;9.30;;
13685;SDS011;6915;48.296;8.874;2022-12-13T04:56:44;17.33;;;8.70;;
13685;SDS011;6915;48.296;8.874;2022-12-13T04:59:13;15.53;;;9.27;;
13685;SDS011;6915;48.296;8.874;2022-12-13T05:01:42;16.97;;;8.40;;
13685;SDS011;6915;48.296;8.874;2022-12-13T05:04:11;15.90;;;8.50;;
13685;SDS011;6915;48.296;8.874;2022-12-13T05:06:39;14.67;;;8.13;;
13685;SDS011;6915;48.296;8.874;2022-12-13T05:09:08;18.07;;;8.17;;
13685;SDS011;6915;48.296;8.874;2022-12-13T05:11:36;14.77;;;7.90;;
13685;SDS011;6915;48.296;8.874;2022-12-13T05:14:07;15.43;;;8.33;;
13685;SDS011;6915;48.296;8.874;2022-12-13T05:16:35;15.13;;;8.73;;
13685;SDS011;6915;48.296;8.874;2022-12-13T05:19:04;19.40;;;9.17;;
13685;SDS011;6915;48.296;8.874;2022-12-13T05:21:33;15.93;;;9.00;;
13685;SDS011;6915;48.296;8.874;2022-12-13T05:24:02;20.43;;;9.50;;
13685;SDS011;6915;48.296;8.874;2022-12-13T05:26:31;24.40;;;11.77;;
13685;SDS011;6915;48.296;8.874;2022-12-13T05:29:00;21.40;;;10.87;;
13685;SDS011;6915;48.296;8.874;2022-12-13T05:31:30;19.40;;;10.50;;
13685;SDS011;6915;48.296;8.874;2022-12-13T05:33:59;21.40;;;9.80;;
13685;SDS011;6915;48.296;8.874;2022-12-13T05:36:28;22.80;;;10.17;;
13685;SDS011;6915;48.296;8.874;2022-12-13T05:38:57;23.77;;;10.13;;
13685;SDS011;6915;48.296;8.874;2022-12-13T05:41:28;18.33;;;9.97;;
13685;SDS011;6915;48.296;8.874;2022-12-13T05:44:00;27.27;;;12.53;;
13685;SDS011;6915;48.296;8.874;2022-12-13T05:46:30;27.37;;;13.30;;
13685;SDS011;6915;48.296;8.874;2022-12-13T05:48:59;26.70;;;13.20;;
13685;SDS011;6915;48.296;8.874;2022-12-13T05:51:28;21.60;;;10.63;;
13685;SDS011;6915;48.296;8.874;2022-12-13T05:53:56;26.60;;;12.73;;
13685;SDS011;6915;48.296;8.874;2022-12-13T05:56:25;20.80;;;10.93;;
13685;SDS011;6915;48.296;8.874;2022-12-13T05:58:54;18.20;;;10.13;;
13685;SDS011;6915;48.296;8.874;2022-12-13T06:01:23;22.27;;;10.60;;
13685;SDS011;6915;48.296;8.874;2022-12-13T06:03:53;18.27;;;10.07;;
13685;SDS011;6915;48.296;8.874;2022-12-13T06:06:21;20.47;;;10.03;;
13685;SDS011;6915;48.296;8.874;2022-12-13T06:08:50;20.00;;;10.93;;
13685;SDS011;6915;48.296;8.874;2022-12-13T06:11:21;13.43;;;7.60;;
13685;SDS011;6915;48.296;8.874;2022-12-13T06:13:51;13.97;;;7.77;;
13685;SDS011;6915;48.296;8.874;2022-12-13T06:16:34;16.87;;;8.33;;
13685;SDS011;6915;48.296;8.874;2022-12-13T06:19:04;18.33;;;8.67;;
13685;SDS011;6915;48.296;8.874;2022-12-13T06:21:33;18.53;;;9.57;;
13685;SDS011;6915;48.296;8.874;2022-12-13T06:24:03;16.50;;;8.37;;
13685;SDS011;6915;48.296;8.874;2022-12-13T06:26:32;18.37;;;9.20;;
13685;SDS011;6915;48.296;8.874;2022-12-13T06:29:01;20.03;;;10.10;;
13685;SDS011;6915;48.296;8.874;2022-12-13T06:31:30;20.77;;;9.77;;
13685;SDS011;6915;48.296;8.874;2022-12-13T06:34:00;21.93;;;10.30;;
13685;SDS011;6915;48.296;8.874;2022-12-13T06:36:30;19.40;;;9.77;;
13685;SDS011;6915;48.296;8.874;2022-12-13T06:39:00;21.63;;;10.10;;
13685;SDS011;6915;48.296;8.874;2022-12-13T06:41:29;18.80;;;9.23;;
13685;SDS011;6915;48.296;8.874;2022-12-13T06:44:01;20.40;;;9.77;;
13685;SDS011;6915;48.296;8.874;2022-12-13T06:46:30;16.27;;;9.03;;
13685;SDS011;6915;48.296;8.874;2022-12-13T06:48:59;24.07;;;9.40;;
13685;SDS011;6915;48.296;8.874;2022-12-13T06:51:29;19.77;;;8.63;;
13685;SDS011;6915;48.296;8.874;2022-12-13T06:53:57;18.93;;;9.40;;
13685;SDS011;6915;48.296;8.874;2022-12-13T06:56:27;22.10;;;10.57;;
13685;SDS011;6915;48.296;8.874;2022-12-13T06:58:56;18.70;;;9.70;;
13685;SDS011;6915;48.296;8.874;2022-12-13T07:01:25;22.47;;;12.20;;
13685;SDS011;6915;48.296;8.874;2022-12-13T07:03:55;21.43;;;11.43;;
13685;SDS011;6915;48.296;8.874;2022-12-13T07:06:24;20.33;;;10.13;;
13685;SDS011;6915;48.296;8.874;2022-12-13T07:08:54;17.20;;;9.97;;
13685;SDS011;6915;48.296;8.874;2022-12-13T07:11:26;19.87;;;10.43;;
13685;SDS011;6915;48.296;8.874;2022-12-13T07:13:57;15.87;;;9.37;;
13685;SDS011;6915;48.296;8.874;2022-12-13T07:16:27;16.50;;;9.13;;
13685;SDS011;6915;48.296;8.874;2022-12-13T07:18:56;17.77;;;10.07;;
13685;SDS011;6915;48.296;8.874;2022-12-13T07:21:27;18.23;;;9.40;;
13685;SDS011;6915;48.296;8.874;2022-12-13T07:23:57;16.37;;;9.43;;
13685;SDS011;6915;48.296;8.874;2022-12-13T07:26:26;18.67;;;9.13;;
13685;SDS011;6915;48.296;8.874;2022-12-13T07:28:55;17.77;;;8.77;;
13685;SDS011;6915;48.296;8.874;2022-12-13T07:31:24;18.17;;;9.17;;
13685;SDS011;6915;48.296;8.874;2022-12-13T07:33:52;17.27;;;8.93;;
13685;SDS011;6915;48.296;8.874;2022-12-13T07:36:22;16.00;;;9.30;;
13685;SDS011;6915;48.296;8.874;2022-12-13T07:38:52;16.43;;;8.50;;
13685;SDS011;6915;48.296;8.874;2022-12-13T07:41:24;22.20;;;9.60;;
13685;SDS011;6915;48.296;8.874;2022-12-13T07:43:53;19.90;;;9.17;;
13685;SDS011;6915;48.296;8.874;2022-12-13T07:46:22;19.07;;;9.67;;
13685;SDS011;6915;48.296;8.874;2022-12-13T07:48:51;23.87;;;10.23;;
13685;SDS011;6915;48.296;8.874;2022-12-13T07:51:20;27.83;;;12.33;;
13685;SDS011;6915;48.296;8.874;2022-12-13T07:53:48;23.20;;;11.33;;
13685;SDS011;6915;48.296;8.874;2022-12-13T07:56:17;24.37;;;11.00;;
13685;SDS011;6915;48.296;8.874;2022-12-13T07:58:47;27.10;;;12.13;;
13685;SDS011;6915;48.296;8.874;2022-12-13T08:01:16;25.63;;;12.30;;
13685;SDS011;6915;48.296;8.874;2022-12-13T08:03:46;25.43;;;13.03;;
13685;SDS011;6915;48.296;8.874;2022-12-13T08:06:15;28.43;;;12.27;;
13685;SDS011;6915;48.296;8.874;2022-12-13T08:08:44;24.27;;;12.00;;
13685;SDS011;6915;48.296;8.874;2022-12-13T08:11:15;27.23;;;11.70;;
13685;SDS011;6915;48.296;8.874;2022-12-13T08:13:43;27.10;;;12.37;;
13685;SDS011;6915;48.296;8.874;2022-12-13T08:16:13;27.93;;;12.13;;
13685;SDS011;6915;48.296;8.874;2022-12-13T08:18:43;24.20;;;12.97;;
13685;SDS011;6915;48.296;8.874;2022-12-13T08:21:12;32.00;;;13.77;;
13685;SDS011;6915;48.296;8.874;2022-12-13T08:23:41;22.67;;;12.07;;
13685;SDS011;6915;48.296;8.874;2022-12-13T08:26:09;30.27;;;16.37;;
13685;SDS011;6915;48.296;8.874;2022-12-13T08:28:38;34.67;;;18.57;;
13685;SDS011;6915;48.296;8.874;2022-12-13T08:31:08;37.50;;;19.53;;
13685;SDS011;6915;48.296;8.874;2022-12-13T08:33:39;34.00;;;17.60;;
13685;SDS011;6915;48.296;8.874;2022-12-13T08:36:11;31.03;;;17.10;;
13685;SDS011;6915;48.296;8.874;2022-12-13T08:38:42;43.40;;;21.93;;
13685;SDS011;6915;48.296;8.874;2022-12-13T08:41:11;30.83;;;17.00;;
13685;SDS011;6915;48.296;8.874;2022-12-13T08:43:41;33.97;;;17.17;;
13685;SDS011;6915;48.296;8.874;2022-12-13T08:46:09;33.00;;;17.57;;
13685;SDS011;6915;48.296;8.874;2022-12-13T08:48:39;29.30;;;15.83;;
13685;SDS011;6915;48.296;8.874;2022-12-13T08:51:09;28.83;;;15.53;;
13685;SDS011;6915;48.296;8.874;2022-12-13T08:53:41;31.80;;;17.33;;
13685;SDS011;6915;48.296;8.874;2022-12-13T08:56:10;26.20;;;15.40;;
13685;SDS011;6915;48.296;8.874;2022-12-13T08:58:39;30.03;;;15.80;;
13685;SDS011;6915;48.296;8.874;2022-12-13T09:01:08;35.53;;;18.10;;
13685;SDS011;6915;48.296;8.874;2022-12-13T09:03:37;29.00;;;16.70;;
13685;SDS011;6915;48.296;8.874;2022-12-13T09:06:08;27.77;;;14.83;;
13685;SDS011;6915;48.296;8.874;2022-12-13T09:08:37;27.33;;;14.80;;
13685;SDS011;6915;48.296;8.874;2022-12-13T09:11:07;26.73;;;15.00;;
13685;SDS011;6915;48.296;8.874;2022-12-13T09:13:36;26.37;;;13.33;;
13685;SDS011;6915;48.296;8.874;2022-12-13T09:16:06;24.00;;;13.30;;
13685;SDS011;6915;48.296;8.874;2022-12-13T09:18:37;25.40;;;14.60;;
13685;SDS011;6915;48.296;8.874;2022-12-13T09:21:08;34.20;;;16.40;;
13685;SDS011;6915;48.296;8.874;2022-12-13T09:23:39;34.50;;;16.57;;
13685;SDS011;6915;48.296;8.874;2022-12-13T09:26:09;25.57;;;14.67;;
13685;SDS011;6915;48.296;8.874;2022-12-13T09:28:40;31.93;;;16.70;;
13685;SDS011;6915;48.296;8.874;2022-12-13T09:31:09;28.77;;;14.50;;
13685;SDS011;6915;48.296;8.874;2022-12-13T09:33:39;29.93;;;16.17;;
13685;SDS011;6915;48.296;8.874;2022-12-13T09:36:11;28.83;;;16.47;;
13685;SDS011;6915;48.296;8.874;2022-12-13T09:38:42;31.27;;;17.53;;
13685;SDS011;6915;48.296;8.874;2022-12-13T09:41:13;38.50;;;19.43;;
13685;SDS011;6915;48.296;8.874;2022-12-13T09:43:46;34.37;;;18.33;;
13685;SDS011;6915;48.296;8.874;2022-12-13T09:46:23;31.47;;;17.30;;
13685;SDS011;6915;48.296;8.874;2022-12-13T09:48:55;30.93;;;16.87;;
13685;SDS011;6915;48.296;8.874;2022-12-13T09:51:28;32.00;;;16.33;;
13685;SDS011;6915;48.296;8.874;2022-12-13T09:53:59;26.30;;;15.20;;
13685;SDS011;6915;48.296;8.874;2022-12-13T09:56:29;28.23;;;15.13;;
13685;SDS011;6915;48.296;8.874;2022-12-13T09:58:58;25.33;;;14.90;;
13685;SDS011;6915;48.296;8.874;2022-12-13T10:01:27;26.87;;;15.37;;
13685;SDS011;6915;48.296;8.874;2022-12-13T10:03:56;28.07;;;15.37;;
13685;SDS011;6915;48.296;8.874;2022-12-13T10:06:29;29.10;;;15.57;;
13685;SDS011;6915;48.296;8.874;2022-12-13T10:08:59;22.33;;;14.00;;
13685;SDS011;6915;48.296;8.874;2022-12-13T10:11:28;23.37;;;13.37;;
13685;SDS011;6915;48.296;8.874;2022-12-13T10:13:58;24.77;;;14.17;;
13685;SDS011;6915;48.296;8.874;2022-12-13T10:16:35;24.50;;;13.97;;
13685;SDS011;6915;48.296;8.874;2022-12-13T10:19:12;26.07;;;14.13;;
13685;SDS011;6915;48.296;8.874;2022-12-13T10:21:45;23.27;;;13.77;;
13685;SDS011;6915;48.296;8.874;2022-12-13T10:24:17;25.00;;;14.13;;
13685;SDS011;6915;48.296;8.874;2022-12-13T10:26:49;25.73;;;14.23;;
13685;SDS011;6915;48.296;8.874;2022-12-13T10:29:19;27.00;;;14.73;;
13685;SDS011;6915;48.296;8.874;2022-12-13T10:31:49;27.10;;;16.33;;
13685;SDS011;6915;48.296;8.874;2022-12-13T10:34:22;28.83;;;16.93;;
13685;SDS011;6915;48.296;8.874;2022-12-13T10:36:54;27.73;;;15.70;;
13685;SDS011;6915;48.296;8.874;2022-12-13T10:39:35;25.30;;;15.30;;
13685;SDS011;6915;48.296;8.874;2022-12-13T10:42:10;24.37;;;13.70;;
13685;SDS011;6915;48.296;8.874;2022-12-13T10:44:40;32.00;;;16.63;;
13685;SDS011;6915;48.296;8.874;2022-12-13T10:47:13;27.37;;;14.40;;
13685;SDS011;6915;48.296;8.874;2022-12-13T10:49:49;24.40;;;14.47;;
13685;SDS011;6915;48.296;8.874;2022-12-13T10:52:27;25.23;;;14.50;;
13685;SDS011;6915;48.296;8.874;2022-12-13T10:54:58;25.07;;;14.90;;
13685;SDS011;6915;48.296;8.874;2022-12-13T10:57:30;25.13;;;14.47;;
13685;SDS011;6915;48.296;8.874;2022-12-13T11:00:00;28.73;;;15.07;;
13685;SDS011;6915;48.296;8.874;2022-12-13T11:02:33;28.27;;;14.30;;
13685;SDS011;6915;48.296;8.874;2022-12-13T11:05:20;22.73;;;13.90;;
13685;SDS011;6915;48.296;8.874;2022-12-13T11:07:51;24.40;;;14.53;;
13685;SDS011;6915;48.296;8.874;2022-12-13T11:10:22;24.60;;;13.97;;
13685;SDS011;6915;48.296;8.874;2022-12-13T11:12:55;22.93;;;13.60;;
13685;SDS011;6915;48.296;8.874;2022-12-13T11:15:25;20.63;;;12.20;;
13685;SDS011;6915;48.296;8.874;2022-12-13T11:17:56;23.50;;;14.00;;
13685;SDS011;6915;48.296;8.874;2022-12-13T11:20:28;26.33;;;14.70;;
13685;SDS011;6915;48.296;8.874;2022-12-13T11:23:02;28.60;;;15.07;;
13685;SDS011;6915;48.296;8.874;2022-12-13T11:25:32;22.93;;;13.63;;
13685;SDS011;6915;48.296;8.874;2022-12-13T11:30:57;24.00;;;15.13;;
13685;SDS011;6915;48.296;8.874;2022-12-13T11:33:35;24.47;;;14.23;;
13685;SDS011;6915;48.296;8.874;2022-12-13T11:36:14;26.63;;;15.60;;
13685;SDS011;6915;48.296;8.874;2022-12-13T11:38:53;21.90;;;13.07;;
13685;SDS011;6915;48.296;8.874;2022-12-13T11:41:33;21.60;;;13.07;;
13685;SDS011;6915;48.296;8.874;2022-12-13T11:44:08;23.10;;;14.50;;
13685;SDS011;6915;48.296;8.874;2022-12-13T11:46:44;24.33;;;14.53;;
13685;SDS011;6915;48.296;8.874;2022-12-13T11:49:17;24.73;;;13.93;;
13685;SDS011;6915;48.296;8.874;2022-12-13T11:51:54;23.57;;;13.93;;
13685;SDS011;6915;48.296;8.874;2022-12-13T11:54:33;21.73;;;13.67;;
13685;SDS011;6915;48.296;8.874;2022-12-13T11:57:14;22.70;;;13.77;;
13685;SDS011;6915;48.296;8.874;2022-12-13T11:59:51;23.83;;;12.80;;
13685;SDS011;6915;48.296;8.874;2022-12-13T12:02:23;19.57;;;12.33;;
13685;SDS011;6915;48.296;8.874;2022-12-13T12:04:57;22.00;;;13.00;;
13685;SDS011;6915;48.296;8.874;2022-12-13T12:07:28;21.23;;;13.07;;
13685;SDS011;6915;48.296;8.874;2022-12-13T12:10:08;20.40;;;12.67;;
13685;SDS011;6915;48.296;8.874;2022-12-13T12:12:49;21.77;;;12.50;;
13685;SDS011;6915;48.296;8.874;2022-12-13T12:15:23;19.60;;;11.93;;
13685;SDS011;6915;48.296;8.874;2022-12-13T12:17:53;21.90;;;13.30;;
13685;SDS011;6915;48.296;8.874;2022-12-13T12:20:26;21.20;;;13.27;;
13685;SDS011;6915;48.296;8.874;2022-12-13T12:23:08;25.83;;;14.90;;
13685;SDS011;6915;48.296;8.874;2022-12-13T12:25:46;23.10;;;13.67;;
13685;SDS011;6915;48.296;8.874;2022-12-13T12:28:24;20.10;;;13.13;;
13685;SDS011;6915;48.296;8.874;2022-12-13T12:31:05;22.80;;;14.43;;
13685;SDS011;6915;48.296;8.874;2022-12-13T12:33:42;23.37;;;13.07;;
13685;SDS011;6915;48.296;8.874;2022-12-13T12:36:27;22.40;;;13.60;;
13685;SDS011;6915;48.296;8.874;2022-12-13T12:42:07;24.20;;;13.50;;
13685;SDS011;6915;48.296;8.874;2022-12-13T12:45:00;20.50;;;12.87;;
13685;SDS011;6915;48.296;8.874;2022-12-13T12:47:38;20.67;;;13.10;;
13685;SDS011;6915;48.296;8.874;2022-12-13T12:50:16;22.27;;;13.53;;
13685;SDS011;6915;48.296;8.874;2022-12-13T12:52:54;19.70;;;12.43;;
13685;SDS011;6915;48.296;8.874;2022-12-13T12:55:27;22.07;;;12.73;;
13685;SDS011;6915;48.296;8.874;2022-12-13T12:58:04;21.57;;;12.60;;
13685;SDS011;6915;48.296;8.874;2022-12-13T13:00:40;24.43;;;13.17;;
13685;SDS011;6915;48.296;8.874;2022-12-13T13:03:26;20.63;;;12.40;;
13685;SDS011;6915;48.296;8.874;2022-12-13T13:05:59;20.97;;;12.70;;
13685;SDS011;6915;48.296;8.874;2022-12-13T13:08:34;20.17;;;13.10;;
13685;SDS011;6915;48.296;8.874;2022-12-13T13:11:07;22.13;;;12.37;;
13685;SDS011;6915;48.296;8.874;2022-12-13T13:13:44;22.57;;;12.27;;
13685;SDS011;6915;48.296;8.874;2022-12-13T13:16:27;21.07;;;12.33;;
13685;SDS011;6915;48.296;8.874;2022-12-13T13:19:01;18.53;;;11.70;;
13685;SDS011;6915;48.296;8.874;2022-12-13T13:21:38;19.43;;;11.43;;
13685;SDS011;6915;48.296;8.874;2022-12-13T13:24:12;18.63;;;11.37;;
13685;SDS011;6915;48.296;8.874;2022-12-13T13:26:46;17.07;;;11.17;;
13685;SDS011;6915;48.296;8.874;2022-12-13T13:29:32;21.17;;;12.33;;
13685;SDS011;6915;48.296;8.874;2022-12-13T13:34:50;23.03;;;11.40;;
13685;SDS011;6915;48.296;8.874;2022-12-13T13:37:26;18.97;;;10.80;;
13685;SDS011;6915;48.296;8.874;2022-12-13T13:43:01;19.00;;;11.67;;
13685;SDS011;6915;48.296;8.874;2022-12-13T13:45:53;18.20;;;10.50;;
13685;SDS011;6915;48.296;8.874;2022-12-13T13:48:34;17.00;;;10.63;;
13685;SDS011;6915;48.296;8.874;2022-12-13T13:51:21;14.90;;;9.27;;
13685;SDS011;6915;48.296;8.874;2022-12-13T13:54:16;15.50;;;10.23;;
13685;SDS011;6915;48.296;8.874;2022-12-13T13:57:19;16.73;;;9.90;;
13685;SDS011;6915;48.296;8.874;2022-12-13T14:00:21;18.60;;;9.87;;
13685;SDS011;6915;48.296;8.874;2022-12-13T14:09:37;13.90;;;9.47;;
13685;SDS011;6915;48.296;8.874;2022-12-13T14:12:40;15.67;;;9.93;;
13685;SDS011;6915;48.296;8.874;2022-12-13T14:15:45;17.90;;;9.43;;
13685;SDS011;6915;48.296;8.874;2022-12-13T14:18:38;14.80;;;9.80;;
13685;SDS011;6915;48.296;8.874;2022-12-13T14:21:36;15.80;;;9.73;;
13685;SDS011;6915;48.296;8.874;2022-12-13T14:24:14;16.93;;;9.40;;
13685;SDS011;6915;48.296;8.874;2022-12-13T14:26:53;16.37;;;9.67;;
13685;SDS011;6915;48.296;8.874;2022-12-13T14:29:37;15.53;;;9.50;;
13685;SDS011;6915;48.296;8.874;2022-12-13T14:32:09;16.33;;;10.00;;
13685;SDS011;6915;48.296;8.874;2022-12-13T14:34:44;16.47;;;9.90;;
13685;SDS011;6915;48.296;8.874;2022-12-13T14:37:20;18.83;;;9.40;;
13685;SDS011;6915;48.296;8.874;2022-12-13T14:39:53;16.03;;;9.17;;
13685;SDS011;6915;48.296;8.874;2022-12-13T14:42:23;14.90;;;9.20;;
13685;SDS011;6915;48.296;8.874;2022-12-13T14:44:54;15.73;;;9.43;;
13685;SDS011;6915;48.296;8.874;2022-12-13T14:47:38;16.50;;;9.10;;
13685;SDS011;6915;48.296;8.874;2022-12-13T14:50:08;15.73;;;9.30;;
13685;SDS011;6915;48.296;8.874;2022-12-13T14:52:42;14.50;;;9.27;;
13685;SDS011;6915;48.296;8.874;2022-12-13T14:55:21;16.80;;;10.07;;
13685;SDS011;6915;48.296;8.874;2022-12-13T14:57:51;15.73;;;9.80;;
13685;SDS011;6915;48.296;8.874;2022-12-13T15:00:23;17.83;;;9.33;;
13685;SDS011;6915;48.296;8.874;2022-12-13T15:02:56;17.10;;;10.33;;
13685;SDS011;6915;48.296;8.874;2022-12-13T15:05:26;17.07;;;10.27;;
13685;SDS011;6915;48.296;8.874;2022-12-13T15:07:58;15.87;;;10.77;;
13685;SDS011;6915;48.296;8.874;2022-12-13T15:10:31;19.07;;;11.27;;
13685;SDS011;6915;48.296;8.874;2022-12-13T15:13:04;16.23;;;10.10;;
13685;SDS011;6915;48.296;8.874;2022-12-13T15:15:39;16.53;;;9.80;;
13685;SDS011;6915;48.296;8.874;2022-12-13T15:18:15;14.77;;;9.20;;
13685;SDS011;6915;48.296;8.874;2022-12-13T15:20:46;14.67;;;9.50;;
13685;SDS011;6915;48.296;8.874;2022-12-13T15:23:18;14.50;;;9.40;;
13685;SDS011;6915;48.296;8.874;2022-12-13T15:25:54;15.50;;;9.13;;
13685;SDS011;6915;48.296;8.874;2022-12-13T15:28:26;22.73;;;12.97;;
13685;SDS011;6915;48.296;8.874;2022-12-13T15:30:58;22.03;;;14.10;;
13685;SDS011;6915;48.296;8.874;2022-12-13T15:33:29;65.93;;;34.07;;
13685;SDS011;6915;48.296;8.874;2022-12-13T15:36:00;27.60;;;15.30;;
13685;SDS011;6915;48.296;8.874;2022-12-13T15:38:30;29.77;;;17.03;;
13685;SDS011;6915;48.296;8.874;2022-12-13T15:41:02;21.30;;;12.17;;
13685;SDS011;6915;48.296;8.874;2022-12-13T15:43:33;22.30;;;13.03;;